createdAt,value
2022-08-14T00:00:18.933Z,99.90
2022-08-14T00:02:47.175Z,99.90
2022-08-14T00:05:16.592Z,99.90
2022-08-14T00:07:44.066Z,99.90
2022-08-14T00:10:52.420Z,99.90
2022-08-14T00:13:00.817Z,99.90
2022-08-14T00:15:43.520Z,99.90
2022-08-14T00:18:14.394Z,99.90
2022-08-14T00:20:42.928Z,99.90
2022-08-14T00:23:16.895Z,99.90
2022-08-14T00:25:58.622Z,99.90
2022-08-14T00:28:34.948Z,99.90
2022-08-14T00:31:03.155Z,99.90
2022-08-14T00:33:51.516Z,99.90
2022-08-14T00:36:39.386Z,99.90
2022-08-14T00:39:06.623Z,99.90
2022-08-14T00:41:36.523Z,99.90
2022-08-14T00:44:06.115Z,99.90
2022-08-14T00:46:33.488Z,99.90
2022-08-14T00:49:00.646Z,99.90
2022-08-14T00:51:36.825Z,99.90
2022-08-14T00:54:16.987Z,99.90
2022-08-14T00:56:51.315Z,99.90
2022-08-14T00:59:23.085Z,99.90
2022-08-14T01:01:49.895Z,99.90
2022-08-14T01:04:38.281Z,99.90
2022-08-14T01:07:08.165Z,99.90
2022-08-14T01:09:36.899Z,99.90
2022-08-14T01:12:05.184Z,99.90
2022-08-14T01:14:32.418Z,99.90
2022-08-14T01:16:59.173Z,99.90
2022-08-14T01:19:45.008Z,99.90
2022-08-14T01:22:18.828Z,99.90
2022-08-14T01:24:46.128Z,99.90
2022-08-14T01:27:14.277Z,99.90
2022-08-14T01:29:58.640Z,99.90
2022-08-14T01:32:27.336Z,99.90
2022-08-14T01:35:18.819Z,99.90
2022-08-14T01:37:44.525Z,99.90
2022-08-14T01:40:17.251Z,99.90
2022-08-14T01:42:47.144Z,99.90
2022-08-14T01:45:17.709Z,99.90
2022-08-14T01:47:52.069Z,99.90
2022-08-14T01:50:30.602Z,99.90
2022-08-14T01:53:01.721Z,99.90
2022-08-14T01:55:30.711Z,99.90
2022-08-14T01:58:01.649Z,99.90
2022-08-14T02:00:44.314Z,99.90
2022-08-14T02:03:15.460Z,99.90
2022-08-14T02:05:42.567Z,99.90
2022-08-14T02:08:10.878Z,99.90
2022-08-14T02:10:46.371Z,99.90
2022-08-14T02:13:16.094Z,99.90
2022-08-14T02:15:43.780Z,99.90
2022-08-14T02:18:10.707Z,99.90
2022-08-14T02:20:38.750Z,99.90
2022-08-14T02:23:08.321Z,99.90
2022-08-14T02:25:36.395Z,99.90
2022-08-14T02:28:21.991Z,99.90
2022-08-14T02:30:52.352Z,99.90
2022-08-14T02:33:22.606Z,99.90
2022-08-14T02:35:53.448Z,99.90
2022-08-14T02:38:29.480Z,99.90
2022-08-14T02:40:58.243Z,99.90
2022-08-14T02:43:36.643Z,99.90
2022-08-14T02:46:05.577Z,99.90
2022-08-14T02:49:04.277Z,99.90
2022-08-14T02:51:22.604Z,99.90
2022-08-14T02:53:50.027Z,99.90
2022-08-14T02:56:30.022Z,99.90
2022-08-14T02:59:07.309Z,99.90
2022-08-14T03:01:43.347Z,99.90
2022-08-14T03:04:11.794Z,99.90
2022-08-14T03:07:06.768Z,99.90
2022-08-14T03:10:24.510Z,99.90
2022-08-14T03:12:26.994Z,99.90
2022-08-14T03:14:58.188Z,99.90
2022-08-14T03:17:26.202Z,99.90
2022-08-14T03:19:58.458Z,99.90
2022-08-14T03:22:27.815Z,99.90
2022-08-14T03:24:56.710Z,99.90
2022-08-14T03:27:35.128Z,99.90
2022-08-14T03:30:14.596Z,99.90
2022-08-14T03:32:43.169Z,99.90
2022-08-14T03:35:10.658Z,99.90
2022-08-14T03:39:10.291Z,99.90
2022-08-14T03:40:24.746Z,99.90
2022-08-14T03:42:52.114Z,99.90
2022-08-14T03:45:34.338Z,99.90
2022-08-14T03:48:03.994Z,99.90
2022-08-14T03:50:37.724Z,99.90
2022-08-14T03:53:04.676Z,99.90
2022-08-14T03:55:31.554Z,99.90
2022-08-14T03:58:00.662Z,99.90
2022-08-14T04:00:43.182Z,99.90
2022-08-14T04:03:16.528Z,99.90
2022-08-14T04:05:48.723Z,99.90
2022-08-14T04:08:23.150Z,99.90
2022-08-14T04:10:57.124Z,99.90
2022-08-14T04:13:24.613Z,99.90
2022-08-14T04:16:01.498Z,99.90
2022-08-14T04:18:29.885Z,99.90
2022-08-14T04:20:57.414Z,99.90
2022-08-14T04:23:29.987Z,99.90
2022-08-14T04:26:00.601Z,99.90
2022-08-14T04:29:05.273Z,99.90
2022-08-14T04:31:15.529Z,99.90
2022-08-14T04:33:42.371Z,99.90
2022-08-14T04:36:16.013Z,99.90
2022-08-14T04:39:02.356Z,99.90
2022-08-14T04:41:47.424Z,99.90
2022-08-14T04:44:36.343Z,99.90
2022-08-14T04:47:16.251Z,99.90
2022-08-14T04:49:46.565Z,99.90
2022-08-14T04:52:24.918Z,99.90
2022-08-14T04:54:52.471Z,99.90
2022-08-14T04:57:21.531Z,99.90
2022-08-14T04:59:52.047Z,99.90
2022-08-14T05:02:24.801Z,99.90
2022-08-14T05:04:57.411Z,99.90
2022-08-14T05:07:46.850Z,99.90
2022-08-14T05:10:13.429Z,99.90
2022-08-14T05:13:12.981Z,99.90
2022-08-14T05:15:32.081Z,99.90
2022-08-14T05:18:17.020Z,99.90
2022-08-14T05:21:54.582Z,99.90
2022-08-14T05:23:34.970Z,99.90
2022-08-14T05:26:12.365Z,99.90
2022-08-14T05:28:44.293Z,99.90
2022-08-14T05:31:13.757Z,99.90
2022-08-14T05:33:56.462Z,99.90
2022-08-14T05:36:25.099Z,99.90
2022-08-14T05:38:53.349Z,99.90
2022-08-14T05:41:20.098Z,99.90
2022-08-14T05:43:49.537Z,99.90
2022-08-14T05:46:22.089Z,99.90
2022-08-14T05:48:49.122Z,99.90
2022-08-14T05:51:16.719Z,99.90
2022-08-14T05:53:43.616Z,99.90
2022-08-14T05:56:27.161Z,99.90
2022-08-14T05:58:55.904Z,99.90
2022-08-14T06:01:23.621Z,99.90
2022-08-14T06:03:50.801Z,99.90
2022-08-14T06:06:21.458Z,99.90
2022-08-14T06:08:48.920Z,99.90
2022-08-14T06:11:20.283Z,99.90
2022-08-14T06:13:50.706Z,99.90
2022-08-14T06:16:19.003Z,99.90
2022-08-14T06:18:52.365Z,99.90
2022-08-14T06:21:20.883Z,99.90
2022-08-14T06:23:49.180Z,99.90
2022-08-14T06:26:16.300Z,99.90
2022-08-14T06:28:47.927Z,99.90
2022-08-14T06:31:19.349Z,99.90
2022-08-14T06:35:10.161Z,99.90
2022-08-14T06:36:35.980Z,99.90
2022-08-14T06:39:02.810Z,99.90
2022-08-14T06:41:59.406Z,99.90
2022-08-14T06:44:16.297Z,99.90
2022-08-14T06:46:43.064Z,99.90
2022-08-14T06:49:16.929Z,99.90
2022-08-14T06:51:46.115Z,99.80
2022-08-14T06:54:13.258Z,99.90
2022-08-14T06:56:40.054Z,99.30
2022-08-14T06:59:19.550Z,97.60
2022-08-14T07:02:05.187Z,94.30
2022-08-14T07:04:51.277Z,95.80
2022-08-14T07:07:18.041Z,89.40
2022-08-14T07:09:51.058Z,63.30
2022-08-14T07:12:54.152Z,59.00
2022-08-14T07:15:05.429Z,49.00
2022-08-14T07:17:32.263Z,46.40
2022-08-14T07:20:02.041Z,42.20
2022-08-14T07:22:32.880Z,27.80
2022-08-14T07:25:15.697Z,33.70
2022-08-14T07:27:43.508Z,19.40
2022-08-14T07:30:34.566Z,29.40
2022-08-14T07:32:57.777Z,18.30
2022-08-14T07:35:25.158Z,33.90
2022-08-14T07:38:05.985Z,37.30
2022-08-14T07:40:35.462Z,37.20
2022-08-14T07:43:14.021Z,37.60
2022-08-14T07:45:41.844Z,22.80
2022-08-14T07:48:09.215Z,17.50
2022-08-14T07:50:42.954Z,14.10
2022-08-14T07:53:13.841Z,14.50
2022-08-14T07:55:41.803Z,13.70
2022-08-14T07:58:30.377Z,16.20
2022-08-14T08:00:56.561Z,15.70
2022-08-14T08:03:24.759Z,13.80
2022-08-14T08:05:55.573Z,13.00
2022-08-14T08:08:26.859Z,11.60
2022-08-14T08:11:03.276Z,4.80
2022-08-14T08:13:32.508Z,10.40
2022-08-14T08:16:02.459Z,8.40
2022-08-14T08:18:30.952Z,6.10
2022-08-14T08:20:59.560Z,1.00
2022-08-14T08:23:34.397Z,1.00
2022-08-14T08:26:10.482Z,1.00
2022-08-14T08:28:37.440Z,2.30
2022-08-14T08:31:06.069Z,1.80
2022-08-14T08:33:37.581Z,1.80
2022-08-14T08:36:06.730Z,1.00
2022-08-14T08:39:18.838Z,1.00
2022-08-14T08:41:22.215Z,3.00
2022-08-14T08:43:51.112Z,1.00
2022-08-14T08:46:21.334Z,1.00
2022-08-14T08:48:53.626Z,1.00
2022-08-14T08:51:22.049Z,1.00
2022-08-14T08:53:59.459Z,1.00
2022-08-14T08:56:40.175Z,1.00
2022-08-14T08:59:18.237Z,1.00
2022-08-14T09:01:51.475Z,1.00
2022-08-14T09:04:24.324Z,1.00
2022-08-14T09:06:59.995Z,1.00
2022-08-14T09:09:54.175Z,1.00
2022-08-14T09:12:32.329Z,1.00
2022-08-14T09:15:00.655Z,1.00
2022-08-14T09:17:27.563Z,1.00
2022-08-14T09:19:54.582Z,1.00
2022-08-14T09:22:33.058Z,1.00
2022-08-14T09:25:04.271Z,1.00
2022-08-14T09:27:34.599Z,1.00
2022-08-14T09:30:02.067Z,1.00
2022-08-14T09:32:58.965Z,1.00
2022-08-14T09:35:42.431Z,1.00
2022-08-14T09:38:25.714Z,1.00
2022-08-14T09:40:59.293Z,1.00
2022-08-14T09:43:29.549Z,1.00
2022-08-14T09:45:58.413Z,1.00
2022-08-14T09:48:30.957Z,1.00
2022-08-14T09:54:12.554Z,1.00
2022-08-14T09:56:31.135Z,1.00
2022-08-14T09:58:58.861Z,1.00
2022-08-14T10:01:35.677Z,1.00
2022-08-14T10:04:06.295Z,1.00
2022-08-14T10:06:44.865Z,1.00
2022-08-14T10:09:16.857Z,1.00
2022-08-14T10:11:58.759Z,1.00
2022-08-14T10:14:36.069Z,1.00
2022-08-14T10:17:05.246Z,3.60
2022-08-14T10:19:35.804Z,1.00
2022-08-14T10:23:11.910Z,1.00
2022-08-14T10:24:55.812Z,1.00
2022-08-14T10:27:23.253Z,1.70
2022-08-14T10:29:50.787Z,1.00
2022-08-14T10:32:28.368Z,1.00
2022-08-14T10:35:04.208Z,1.00
2022-08-14T10:37:38.468Z,1.00
2022-08-14T10:40:38.885Z,1.00
2022-08-14T10:42:56.064Z,1.00
2022-08-14T10:45:24.281Z,1.00
2022-08-14T10:48:08.261Z,1.00
2022-08-14T10:50:40.984Z,1.00
2022-08-14T10:53:08.076Z,1.00
2022-08-14T10:55:39.073Z,1.00
2022-08-14T10:58:12.571Z,1.00
2022-08-14T11:00:56.663Z,1.00
2022-08-14T11:03:26.813Z,1.00
2022-08-14T11:06:13.735Z,1.00
2022-08-14T11:08:41.252Z,1.00
2022-08-14T11:11:08.717Z,1.00
2022-08-14T11:13:38.213Z,1.00
2022-08-14T11:16:05.132Z,1.00
2022-08-14T11:18:40.343Z,1.00
2022-08-14T11:21:08.407Z,1.00
2022-08-14T11:23:39.618Z,1.00
2022-08-14T11:26:08.605Z,1.00
2022-08-14T11:28:46.395Z,1.00
2022-08-14T11:31:17.817Z,1.00
2022-08-14T11:33:48.075Z,1.00
2022-08-14T11:36:18.306Z,1.00
2022-08-14T11:38:46.027Z,1.00
2022-08-14T11:41:17.138Z,1.00
2022-08-14T11:43:56.034Z,1.00
2022-08-14T11:46:29.573Z,1.00
2022-08-14T11:49:03.653Z,1.00
2022-08-14T11:51:35.935Z,1.00
2022-08-14T11:54:19.789Z,1.00
2022-08-14T11:56:49.205Z,1.00
2022-08-14T11:59:18.040Z,1.00
2022-08-14T12:01:45.572Z,1.00
2022-08-14T12:04:32.394Z,1.00
2022-08-14T12:07:00.665Z,1.00
2022-08-14T12:09:29.536Z,1.00
2022-08-14T12:11:57.661Z,1.00
2022-08-14T12:14:34.608Z,1.00
2022-08-14T12:17:09.619Z,1.00
2022-08-14T12:19:50.865Z,1.00
2022-08-14T12:22:32.251Z,1.00
2022-08-14T12:24:59.778Z,1.00
2022-08-14T12:27:41.300Z,1.00
2022-08-14T12:30:09.466Z,1.00
2022-08-14T12:32:38.615Z,1.00
2022-08-14T12:35:05.956Z,1.00
2022-08-14T12:37:32.788Z,1.00
2022-08-14T12:40:08.648Z,1.00
2022-08-14T12:42:38.678Z,1.00
2022-08-14T12:45:12.283Z,1.00
2022-08-14T12:47:45.026Z,1.00
2022-08-14T12:50:20.189Z,1.00
2022-08-14T12:52:58.764Z,1.00
2022-08-14T12:56:22.108Z,1.00
2022-08-14T12:58:29.475Z,1.00
2022-08-14T13:01:20.745Z,1.00
2022-08-14T13:03:48.037Z,1.00
2022-08-14T13:06:19.929Z,1.00
2022-08-14T13:08:52.859Z,1.00
2022-08-14T13:11:23.915Z,1.00
2022-08-14T13:13:56.061Z,1.00
2022-08-14T13:16:37.712Z,1.00
2022-08-14T13:19:09.711Z,1.00
2022-08-14T13:22:05.090Z,1.00
2022-08-14T13:24:27.782Z,1.00
2022-08-14T13:26:58.844Z,1.00
2022-08-14T13:29:29.668Z,1.00
2022-08-14T13:32:00.447Z,1.00
2022-08-14T13:34:31.517Z,1.00
2022-08-14T13:37:03.596Z,1.00
2022-08-14T13:39:32.129Z,1.00
2022-08-14T13:42:08.194Z,1.00
2022-08-14T13:44:35.631Z,1.00
2022-08-14T13:47:06.104Z,1.00
2022-08-14T13:49:56.752Z,1.00
2022-08-14T13:52:51.828Z,1.00
2022-08-14T13:55:13.425Z,1.00
2022-08-14T13:57:49.462Z,1.00
2022-08-14T14:00:32.702Z,1.00
2022-08-14T14:03:00.903Z,1.00
2022-08-14T14:05:52.797Z,1.00
2022-08-14T14:08:18.992Z,1.00
2022-08-14T14:11:04.187Z,1.00
2022-08-14T14:13:31.891Z,1.00
2022-08-14T14:16:02.262Z,1.00
2022-08-14T14:18:35.342Z,1.00
2022-08-14T14:21:02.817Z,1.00
2022-08-14T14:23:30.511Z,1.00
2022-08-14T14:25:59.623Z,1.00
2022-08-14T14:28:30.554Z,1.00
2022-08-14T14:31:01.093Z,1.00
2022-08-14T14:33:49.378Z,1.00
2022-08-14T14:36:20.714Z,1.00
2022-08-14T14:38:50.992Z,1.00
2022-08-14T14:41:20.549Z,1.00
2022-08-14T14:43:49.239Z,1.00
2022-08-14T14:46:19.205Z,1.00
2022-08-14T14:48:54.022Z,1.00
2022-08-14T14:51:21.525Z,1.00
2022-08-14T14:53:48.518Z,1.00
2022-08-14T14:56:47.641Z,1.00
2022-08-14T14:59:01.977Z,1.00
2022-08-14T15:01:28.782Z,1.00
2022-08-14T15:03:58.433Z,1.00
2022-08-14T15:06:28.871Z,1.00
2022-08-14T15:08:59.549Z,1.00
2022-08-14T15:11:30.301Z,1.00
2022-08-14T15:13:57.504Z,1.00
2022-08-14T15:16:24.740Z,1.60
2022-08-14T15:18:51.664Z,1.00
2022-08-14T15:21:20.850Z,1.00
2022-08-14T15:23:47.766Z,1.00
2022-08-14T15:26:30.931Z,4.70
2022-08-14T15:29:02.859Z,6.10
2022-08-14T15:31:32.162Z,1.00
2022-08-14T15:34:46.167Z,1.00
2022-08-14T15:36:58.887Z,1.00
2022-08-14T15:39:25.729Z,7.70
2022-08-14T15:42:00.562Z,6.80
2022-08-14T15:44:32.457Z,1.00
2022-08-14T15:47:06.120Z,4.00
2022-08-14T15:49:35.112Z,3.40
2022-08-14T15:52:03.999Z,4.60
2022-08-14T15:54:31.412Z,1.70
2022-08-14T15:56:59.044Z,3.00
2022-08-14T15:59:26.122Z,2.90
2022-08-14T16:01:55.121Z,2.50
2022-08-14T16:04:23.747Z,2.00
2022-08-14T16:06:54.535Z,2.30
2022-08-14T16:09:22.828Z,3.10
2022-08-14T16:11:53.667Z,5.00
2022-08-14T16:14:21.538Z,6.40
2022-08-14T16:17:00.564Z,10.70
2022-08-14T16:19:44.113Z,10.40
2022-08-14T16:22:58.274Z,11.30
2022-08-14T16:25:03.396Z,14.10
2022-08-14T16:27:39.188Z,9.20
2022-08-14T16:30:10.794Z,7.80
2022-08-14T16:32:55.113Z,8.00
2022-08-14T16:35:24.364Z,10.50
2022-08-14T16:37:53.140Z,7.80
2022-08-14T16:43:04.767Z,7.00
2022-08-14T16:45:43.900Z,7.90
2022-08-14T16:48:55.141Z,11.60
2022-08-14T16:50:57.799Z,12.90
2022-08-14T16:53:27.525Z,1.00
2022-08-14T16:56:09.259Z,5.70
2022-08-14T16:58:47.150Z,8.40
2022-08-14T17:01:22.986Z,13.30
2022-08-14T17:03:53.653Z,17.10
2022-08-14T17:06:49.323Z,15.60
2022-08-14T17:09:30.542Z,16.20
2022-08-14T17:12:07.421Z,18.20
2022-08-14T17:15:03.367Z,9.00
2022-08-14T17:18:05.623Z,22.30
2022-08-14T17:20:54.802Z,25.10
2022-08-14T17:23:19.872Z,22.50
2022-08-14T17:25:51.284Z,21.90
2022-08-14T17:28:50.632Z,27.60
2022-08-14T17:31:07.961Z,27.10
2022-08-14T17:33:40.720Z,23.60
2022-08-14T17:36:20.832Z,28.10
2022-08-14T17:39:00.077Z,27.10
2022-08-14T17:41:36.233Z,28.70
2022-08-14T17:44:33.975Z,28.10
2022-08-14T17:47:13.202Z,39.80
2022-08-14T17:49:44.719Z,41.40
2022-08-14T17:52:17.134Z,41.00
2022-08-14T17:54:48.579Z,45.50
2022-08-14T17:57:25.860Z,47.10
2022-08-14T17:59:55.738Z,53.60
2022-08-14T18:02:31.440Z,55.20
2022-08-14T18:04:59.412Z,52.60
2022-08-14T18:07:59.396Z,57.90
2022-08-14T18:10:51.867Z,60.80
2022-08-14T18:13:01.825Z,66.80
2022-08-14T18:15:37.340Z,74.60
2022-08-14T18:18:08.993Z,87.30
2022-08-14T18:21:23.643Z,90.80
2022-08-14T18:23:24.089Z,96.20
2022-08-14T18:25:52.314Z,99.90
2022-08-14T18:28:48.121Z,99.90
2022-08-14T18:31:23.353Z,99.90
2022-08-14T18:33:53.636Z,99.90
2022-08-14T18:36:47.784Z,99.90
2022-08-14T18:39:21.167Z,99.90
2022-08-14T18:41:49.950Z,99.90
2022-08-14T18:44:50.406Z,99.90
2022-08-14T18:47:21.795Z,99.90
2022-08-14T18:50:27.560Z,99.90
2022-08-14T18:53:05.035Z,99.90
2022-08-14T18:55:52.795Z,99.90
2022-08-14T18:58:27.898Z,99.90
2022-08-14T19:00:59.517Z,99.90
2022-08-14T19:03:56.303Z,99.90
2022-08-14T19:06:48.007Z,99.90
2022-08-14T19:09:41.581Z,99.90
2022-08-14T19:12:15.194Z,99.90
2022-08-14T19:14:43.483Z,99.90
2022-08-14T19:17:25.213Z,99.90
2022-08-14T19:20:03.179Z,99.90
2022-08-14T19:22:30.683Z,99.90
2022-08-14T19:24:57.414Z,99.90
2022-08-14T19:27:26.407Z,99.90
2022-08-14T19:30:22.599Z,99.90
2022-08-14T19:32:53.206Z,99.90
2022-08-14T19:35:55.763Z,99.90
2022-08-14T19:38:47.074Z,99.90
2022-08-14T19:41:15.369Z,99.90
2022-08-14T19:43:50.758Z,99.90
2022-08-14T19:46:38.568Z,99.90
2022-08-14T19:49:13.453Z,99.90
2022-08-14T19:51:41.991Z,99.90
2022-08-14T19:54:13.695Z,99.90
2022-08-14T19:56:45.036Z,99.90
2022-08-14T19:59:17.470Z,99.90
2022-08-14T20:01:44.686Z,99.90
2022-08-14T20:04:45.159Z,99.90
2022-08-14T20:07:00.788Z,99.90
2022-08-14T20:11:05.636Z,99.90
2022-08-14T20:12:29.296Z,99.90
2022-08-14T20:15:03.740Z,99.90
2022-08-14T20:17:40.121Z,99.90
2022-08-14T20:20:16.649Z,99.90
2022-08-14T20:22:57.434Z,99.90
2022-08-14T20:25:35.411Z,99.90
2022-08-14T20:28:29.691Z,99.90
2022-08-14T20:31:12.338Z,99.90
2022-08-14T20:34:00.383Z,99.90
2022-08-14T20:36:30.081Z,99.90
2022-08-14T20:38:57.477Z,99.90
2022-08-14T20:41:24.358Z,99.90
2022-08-14T20:44:09.480Z,99.90
2022-08-14T20:46:42.265Z,99.90
2022-08-14T20:49:10.556Z,99.90
2022-08-14T20:51:43.420Z,99.90
2022-08-14T20:54:33.773Z,99.90
2022-08-14T20:57:05.718Z,99.90
2022-08-14T20:59:37.877Z,99.90
2022-08-14T21:02:30.538Z,99.90
2022-08-14T21:05:04.720Z,99.90
2022-08-14T21:07:44.541Z,99.90
2022-08-14T21:10:33.909Z,99.90
2022-08-14T21:13:26.661Z,99.90
2022-08-14T21:15:58.037Z,99.90
2022-08-14T21:18:26.005Z,99.90
2022-08-14T21:20:57.214Z,99.90
2022-08-14T21:23:23.964Z,99.90
2022-08-14T21:25:50.770Z,99.90
2022-08-14T21:28:30.259Z,99.90
2022-08-14T21:31:01.579Z,99.90
2022-08-14T21:33:28.446Z,99.90
2022-08-14T21:35:57.206Z,99.90
2022-08-14T21:38:33.462Z,99.90
2022-08-14T21:41:02.293Z,99.90
2022-08-14T21:43:52.357Z,99.90
2022-08-14T21:46:19.206Z,99.90
2022-08-14T21:48:46.321Z,99.90
2022-08-14T21:51:53.647Z,99.90
2022-08-14T21:54:00.624Z,99.90
2022-08-14T21:56:38.947Z,99.90
2022-08-14T21:59:08.311Z,99.90
2022-08-14T22:02:00.831Z,99.90
2022-08-14T22:04:34.782Z,99.90
2022-08-14T22:07:10.456Z,99.90
2022-08-14T22:09:39.000Z,99.90
2022-08-14T22:12:10.427Z,99.90
2022-08-14T22:14:43.710Z,99.90
2022-08-14T22:17:13.183Z,99.90
2022-08-14T22:19:54.973Z,99.90
2022-08-14T22:22:23.247Z,99.90
2022-08-14T22:24:53.165Z,99.90
2022-08-14T22:27:21.181Z,99.90
2022-08-14T22:29:54.968Z,99.90
2022-08-14T22:32:35.316Z,99.90
2022-08-14T22:35:12.161Z,99.90
2022-08-14T22:37:44.626Z,99.90
2022-08-14T22:40:46.398Z,99.90
2022-08-14T22:43:00.351Z,99.90
2022-08-14T22:45:36.361Z,99.90
2022-08-14T22:48:03.853Z,99.90
2022-08-14T22:50:33.850Z,99.90
2022-08-14T22:53:03.414Z,99.90
2022-08-14T22:55:30.422Z,99.90
2022-08-14T22:58:03.739Z,99.90
2022-08-14T23:00:33.112Z,99.90
2022-08-14T23:03:01.836Z,99.90
2022-08-14T23:05:38.667Z,99.90
2022-08-14T23:08:58.657Z,99.90
2022-08-14T23:10:53.472Z,99.90
2022-08-14T23:13:20.503Z,99.90
2022-08-14T23:15:47.572Z,99.90
2022-08-14T23:18:14.757Z,99.90
2022-08-14T23:20:44.252Z,99.90
2022-08-14T23:23:12.598Z,99.90
2022-08-14T23:25:57.634Z,99.90
2022-08-14T23:28:34.191Z,99.90
2022-08-14T23:31:16.219Z,99.90
2022-08-14T23:34:01.872Z,99.90
2022-08-14T23:36:37.513Z,99.90
2022-08-14T23:39:20.633Z,99.90
2022-08-14T23:41:53.063Z,99.90
2022-08-14T23:44:21.591Z,99.90
2022-08-14T23:46:48.848Z,99.90
2022-08-14T23:49:19.620Z,99.90
2022-08-14T23:51:48.882Z,99.90
2022-08-14T23:54:48.276Z,99.90
2022-08-14T23:57:19.295Z,99.90
2022-08-14T23:59:54.929Z,99.90
